createdAt,value
2023-02-05T00:01:42.192Z,0.10
2023-02-05T00:04:09.896Z,0.20
2023-02-05T00:06:37.591Z,0.20
2023-02-05T00:09:05.407Z,0.20
2023-02-05T00:11:33.136Z,1.00
2023-02-05T00:14:00.918Z,0.10
2023-02-05T00:16:29.031Z,0.43
2023-02-05T00:18:57.919Z,0.77
2023-02-05T00:21:25.613Z,0.57
2023-02-05T00:23:53.799Z,0.37
2023-02-05T00:26:21.755Z,1.47
2023-02-05T00:28:49.548Z,1.13
2023-02-05T00:31:22.144Z,0.47
2023-02-05T00:33:51.447Z,0.30
2023-02-05T00:36:21.108Z,1.80
2023-02-05T00:38:49.648Z,1.70
2023-02-05T00:41:18.382Z,0.87
2023-02-05T00:43:46.359Z,1.17
2023-02-05T00:46:15.417Z,2.13
2023-02-05T00:48:44.087Z,0.57
2023-02-05T00:51:12.622Z,1.00
2023-02-05T00:53:40.988Z,0.70
2023-02-05T00:56:08.962Z,0.63
2023-02-05T00:58:36.927Z,0.60
2023-02-05T01:01:04.739Z,0.57
2023-02-05T01:03:33.739Z,0.70
2023-02-05T01:06:03.302Z,0.87
2023-02-05T01:08:31.421Z,0.47
2023-02-05T01:11:00.128Z,0.40
2023-02-05T01:13:28.303Z,1.10
2023-02-05T01:15:56.048Z,0.80
2023-02-05T01:18:23.855Z,1.90
2023-02-05T01:20:51.581Z,1.27
2023-02-05T01:23:19.289Z,1.00
2023-02-05T01:25:47.090Z,0.50
2023-02-05T01:28:15.834Z,0.77
2023-02-05T01:30:47.826Z,3.53
2023-02-05T01:35:44.884Z,1.67
2023-02-05T01:38:16.312Z,1.47
2023-02-05T01:40:44.328Z,2.28
2023-02-05T01:43:17.515Z,0.60
2023-02-05T01:45:50.963Z,0.93
2023-02-05T01:48:23.574Z,0.70
2023-02-05T01:50:57.515Z,0.60
2023-02-05T01:53:33.202Z,0.80
2023-02-05T01:56:22.204Z,3.80
2023-02-05T01:59:00.838Z,2.13
2023-02-05T02:01:29.790Z,3.03
2023-02-05T02:04:01.449Z,0.93
2023-02-05T02:06:29.148Z,1.23
2023-02-05T02:08:58.489Z,2.43
2023-02-05T02:11:29.214Z,3.60
2023-02-05T02:14:00.508Z,3.53
2023-02-05T02:16:29.889Z,2.30
2023-02-05T02:18:58.251Z,3.67
2023-02-05T02:21:31.823Z,0.57
2023-02-05T02:24:14.787Z,1.43
2023-02-05T02:26:59.768Z,2.53
2023-02-05T02:29:38.779Z,1.80
2023-02-05T02:32:19.531Z,1.90
2023-02-05T02:34:51.972Z,3.13
2023-02-05T02:37:34.478Z,2.00
2023-02-05T02:40:16.988Z,2.23
2023-02-05T02:42:53.068Z,1.83
2023-02-05T02:45:24.014Z,3.23
2023-02-05T02:47:57.255Z,2.37
2023-02-05T02:50:35.341Z,1.17
2023-02-05T02:53:09.862Z,0.70
2023-02-05T02:55:42.745Z,0.40
2023-02-05T02:58:33.997Z,0.73
2023-02-05T03:01:05.490Z,0.70
2023-02-05T03:03:38.361Z,0.73
2023-02-05T03:06:09.853Z,0.60
2023-02-05T03:11:14.770Z,0.50
2023-02-05T03:16:13.940Z,0.80
2023-02-05T03:18:42.265Z,0.90
2023-02-05T03:21:17.196Z,0.73
2023-02-05T03:23:46.037Z,0.47
2023-02-05T03:26:30.972Z,1.00
2023-02-05T03:29:12.932Z,0.63
2023-02-05T03:32:22.495Z,0.80
2023-02-05T03:35:20.610Z,0.60
2023-02-05T03:38:07.162Z,0.60
2023-02-05T03:40:41.128Z,1.07
2023-02-05T03:43:57.532Z,0.50
2023-02-05T03:46:41.470Z,0.63
2023-02-05T03:49:25.962Z,1.13
2023-02-05T03:52:04.120Z,0.30
2023-02-05T03:54:47.331Z,0.67
2023-02-05T03:57:29.705Z,0.73
2023-02-05T04:00:00.338Z,0.70
2023-02-05T04:02:30.259Z,1.60
2023-02-05T04:04:58.325Z,0.40
2023-02-05T04:07:26.237Z,1.23
2023-02-05T04:09:54.402Z,1.40
2023-02-05T04:12:24.389Z,1.20
2023-02-05T04:14:52.031Z,0.80
2023-02-05T04:17:20.152Z,1.07
2023-02-05T04:19:47.964Z,1.37
2023-02-05T04:22:17.799Z,0.87
2023-02-05T04:24:47.547Z,0.87
2023-02-05T04:27:16.196Z,1.17
2023-02-05T04:29:44.190Z,0.80
2023-02-05T04:32:11.896Z,0.60
2023-02-05T04:34:39.649Z,1.30
2023-02-05T04:37:10.228Z,2.67
2023-02-05T04:39:38.019Z,0.87
2023-02-05T04:42:05.937Z,0.90
2023-02-05T04:44:33.634Z,1.47
2023-02-05T04:47:01.293Z,1.13
2023-02-05T04:49:28.950Z,0.77
2023-02-05T04:51:56.621Z,1.10
2023-02-05T04:54:24.357Z,1.60
2023-02-05T04:56:52.018Z,0.80
2023-02-05T04:59:19.752Z,0.73
2023-02-05T05:01:47.446Z,1.13
2023-02-05T05:04:15.219Z,1.00
2023-02-05T05:06:42.896Z,0.77
2023-02-05T05:09:10.656Z,0.30
2023-02-05T05:11:38.351Z,0.30
2023-02-05T05:14:06.020Z,0.70
2023-02-05T05:16:33.860Z,0.50
2023-02-05T05:19:01.583Z,0.53
2023-02-05T05:21:29.241Z,0.20
2023-02-05T05:23:56.934Z,0.80
2023-02-05T05:26:24.584Z,0.30
2023-02-05T05:28:56.104Z,0.40
2023-02-05T05:31:24.765Z,0.50
2023-02-05T05:33:52.621Z,0.83
2023-02-05T05:36:20.667Z,0.30
2023-02-05T05:38:48.395Z,0.20
2023-02-05T05:41:40.708Z,0.20
2023-02-05T05:44:08.602Z,0.60
2023-02-05T05:46:37.252Z,0.20
2023-02-05T05:49:05.640Z,0.20
2023-02-05T05:51:33.901Z,0.30
2023-02-05T05:54:01.618Z,0.10
2023-02-05T05:56:29.282Z,0.20
2023-02-05T05:58:56.922Z,0.77
2023-02-05T06:01:24.618Z,0.83
2023-02-05T06:03:52.324Z,0.17
2023-02-05T06:06:20.027Z,0.63
2023-02-05T06:08:47.751Z,0.93
2023-02-05T06:11:15.462Z,0.83
2023-02-05T06:13:43.201Z,0.20
2023-02-05T06:16:10.906Z,0.17
2023-02-05T06:18:38.625Z,0.17
2023-02-05T06:21:06.585Z,0.83
2023-02-05T06:23:35.349Z,0.30
2023-02-05T06:26:03.034Z,0.30
2023-02-05T06:28:30.698Z,0.27
2023-02-05T06:30:58.460Z,0.27
2023-02-05T06:33:26.191Z,0.73
2023-02-05T06:35:53.850Z,0.30
2023-02-05T06:38:21.591Z,0.87
2023-02-05T06:40:49.988Z,0.83
2023-02-05T06:43:17.630Z,0.40
2023-02-05T06:45:45.257Z,0.73
2023-02-05T06:48:13.043Z,0.30
2023-02-05T06:50:40.844Z,0.63
2023-02-05T06:53:09.558Z,0.93
2023-02-05T06:55:41.402Z,0.30
2023-02-05T06:58:09.053Z,0.30
2023-02-05T07:00:37.305Z,0.50
2023-02-05T07:03:05.183Z,0.60
2023-02-05T07:05:35.073Z,0.83
2023-02-05T07:08:04.118Z,0.30
2023-02-05T07:10:31.943Z,0.50
2023-02-05T07:13:00.003Z,0.77
2023-02-05T07:15:27.760Z,0.40
2023-02-05T07:17:55.407Z,0.80
2023-02-05T07:20:23.566Z,0.37
2023-02-05T07:22:51.228Z,0.80
2023-02-05T07:25:19.022Z,0.60
2023-02-05T07:27:46.764Z,0.40
2023-02-05T07:30:15.138Z,0.40
2023-02-05T07:32:42.813Z,1.07
2023-02-05T07:35:10.431Z,0.30
2023-02-05T07:37:39.464Z,0.70
2023-02-05T07:40:07.804Z,0.70
2023-02-05T07:42:35.512Z,1.17
2023-02-05T07:45:04.262Z,1.07
2023-02-05T07:47:31.997Z,0.40
2023-02-05T07:49:59.666Z,0.23
2023-02-05T07:52:27.535Z,0.53
2023-02-05T07:54:55.186Z,0.20
2023-02-05T07:57:22.872Z,0.33
2023-02-05T07:59:50.552Z,1.07
2023-02-05T08:02:18.220Z,0.70
2023-02-05T08:04:45.922Z,1.20
2023-02-05T08:07:14.115Z,0.70
2023-02-05T08:09:41.793Z,0.40
2023-02-05T08:12:09.932Z,0.47
2023-02-05T08:14:37.784Z,0.13
2023-02-05T08:17:06.332Z,0.57
2023-02-05T08:19:34.060Z,0.10
2023-02-05T08:22:01.695Z,0.40
2023-02-05T08:24:29.359Z,0.47
2023-02-05T08:26:57.067Z,0.30
2023-02-05T08:29:24.783Z,0.30
2023-02-05T08:31:52.494Z,0.63
2023-02-05T08:34:21.003Z,0.40
2023-02-05T08:36:48.781Z,0.60
2023-02-05T08:39:16.402Z,0.40
2023-02-05T08:41:44.071Z,0.90
2023-02-05T08:44:11.704Z,0.90
2023-02-05T08:46:49.858Z,0.13
2023-02-05T08:49:18.919Z,0.57
2023-02-05T08:51:46.696Z,0.37
2023-02-05T08:54:15.266Z,0.90
2023-02-05T08:56:46.616Z,0.33
2023-02-05T08:59:14.727Z,0.47
2023-02-05T09:01:43.547Z,0.40
2023-02-05T09:04:16.278Z,0.73
2023-02-05T09:06:44.099Z,2.80
2023-02-05T09:09:12.420Z,0.83
2023-02-05T09:11:40.361Z,0.27
2023-02-05T09:14:11.317Z,1.67
2023-02-05T09:16:39.193Z,0.70
2023-02-05T09:19:06.919Z,0.47
2023-02-05T09:21:35.425Z,1.07
2023-02-05T09:24:03.090Z,0.47
2023-02-05T09:26:30.950Z,0.27
2023-02-05T09:28:59.283Z,0.67
2023-02-05T09:31:26.966Z,0.57
2023-02-05T09:33:55.812Z,0.57
2023-02-05T09:36:24.897Z,0.77
2023-02-05T09:39:12.036Z,0.83
2023-02-05T09:41:57.203Z,0.77
2023-02-05T09:47:01.788Z,0.93
2023-02-05T09:49:57.309Z,0.57
2023-02-05T09:52:27.157Z,0.30
2023-02-05T09:55:16.600Z,0.20
2023-02-05T09:57:45.363Z,0.50
2023-02-05T10:00:25.176Z,0.90
2023-02-05T10:03:17.183Z,0.30
2023-02-05T10:06:03.325Z,0.68
2023-02-05T10:08:57.366Z,0.67
2023-02-05T10:11:49.208Z,0.40
2023-02-05T10:14:44.452Z,0.75
2023-02-05T10:17:20.814Z,0.50
2023-02-05T10:20:15.061Z,0.30
2023-02-05T10:22:48.455Z,0.20
2023-02-05T10:25:37.357Z,0.50
2023-02-05T10:28:23.662Z,0.20
2023-02-05T10:31:09.405Z,0.40
2023-02-05T10:33:45.542Z,0.40
2023-02-05T10:36:14.203Z,0.20
2023-02-05T10:38:46.857Z,0.27
2023-02-05T10:41:38.888Z,0.40
2023-02-05T10:44:18.038Z,0.30
2023-02-05T10:46:51.698Z,0.70
2023-02-05T10:49:25.396Z,0.43
2023-02-05T10:51:53.252Z,0.33
2023-02-05T10:54:27.782Z,0.97
2023-02-05T10:56:58.185Z,0.70
2023-02-05T10:59:29.933Z,0.83
2023-02-05T11:02:02.992Z,0.88
2023-02-05T11:04:43.561Z,0.30
2023-02-05T11:07:15.237Z,1.27
2023-02-05T11:09:43.828Z,0.30
2023-02-05T11:12:28.966Z,0.60
2023-02-05T11:14:59.797Z,0.40
2023-02-05T11:17:39.273Z,1.13
2023-02-05T11:20:29.337Z,0.40
2023-02-05T11:23:26.948Z,0.60
2023-02-05T11:26:08.002Z,0.50
2023-02-05T11:28:39.690Z,0.57
2023-02-05T11:31:27.199Z,0.30
2023-02-05T11:34:13.152Z,0.50
2023-02-05T11:36:50.951Z,0.20
2023-02-05T11:39:40.457Z,0.60
2023-02-05T11:42:21.300Z,0.50
2023-02-05T11:44:58.944Z,0.27
2023-02-05T11:47:32.314Z,0.50
2023-02-05T11:50:01.284Z,0.23
2023-02-05T11:52:34.676Z,0.53
2023-02-05T11:55:02.620Z,0.43
2023-02-05T11:57:39.277Z,0.50
2023-02-05T12:00:09.753Z,0.33
2023-02-05T12:02:39.514Z,0.33
2023-02-05T12:05:07.170Z,0.10
2023-02-05T12:07:46.167Z,0.77
2023-02-05T12:10:52.227Z,0.70
2023-02-05T12:13:55.136Z,0.60
2023-02-05T12:16:41.672Z,0.20
2023-02-05T12:19:23.337Z,0.70
2023-02-05T12:22:36.480Z,0.80
2023-02-05T12:25:34.464Z,0.70
2023-02-05T12:28:20.868Z,1.40
2023-02-05T12:31:05.968Z,0.23
2023-02-05T12:33:57.855Z,0.60
2023-02-05T12:37:01.191Z,0.40
2023-02-05T12:39:38.988Z,0.37
2023-02-05T12:42:20.448Z,0.70
2023-02-05T12:44:56.839Z,0.38
2023-02-05T12:47:47.174Z,0.20
2023-02-05T12:50:33.685Z,0.30
2023-02-05T12:53:04.081Z,0.40
2023-02-05T12:55:31.727Z,0.50
2023-02-05T12:58:06.925Z,0.43
2023-02-05T13:00:42.508Z,0.40
2023-02-05T13:03:18.107Z,0.40
2023-02-05T13:05:54.489Z,0.30
2023-02-05T13:08:42.264Z,0.40
2023-02-05T13:11:22.786Z,1.00
2023-02-05T13:14:04.324Z,2.63
2023-02-05T13:16:55.796Z,1.05
2023-02-05T13:19:34.613Z,0.90
2023-02-05T13:22:27.705Z,0.20
2023-02-05T13:25:27.390Z,0.30
2023-02-05T13:28:32.865Z,0.80
2023-02-05T13:31:02.746Z,0.60
2023-02-05T13:33:31.199Z,0.17
2023-02-05T13:36:11.134Z,0.50
2023-02-05T13:38:56.847Z,0.90
2023-02-05T13:41:54.069Z,0.40
2023-02-05T13:44:51.754Z,0.80
2023-02-05T13:47:25.268Z,0.70
2023-02-05T13:50:06.940Z,0.23
2023-02-05T13:52:49.827Z,0.30
2023-02-05T13:55:23.657Z,0.87
2023-02-05T13:58:13.378Z,0.63
2023-02-05T14:00:45.352Z,0.50
2023-02-05T14:05:53.578Z,1.03
2023-02-05T14:08:25.726Z,0.40
2023-02-05T14:11:05.501Z,0.40
2023-02-05T14:13:35.855Z,0.23
2023-02-05T14:16:25.546Z,0.60
2023-02-05T14:19:02.114Z,0.30
2023-02-05T14:21:32.500Z,0.70
2023-02-05T14:24:34.181Z,0.63
2023-02-05T14:27:01.965Z,0.47
2023-02-05T14:29:42.226Z,0.47
2023-02-05T14:32:34.011Z,0.30
2023-02-05T14:35:03.681Z,0.40
2023-02-05T14:37:46.165Z,0.60
2023-02-05T14:40:25.961Z,0.60
2023-02-05T14:43:09.579Z,0.20
2023-02-05T14:45:45.838Z,0.40
2023-02-05T14:48:32.557Z,0.40
2023-02-05T14:51:04.758Z,1.63
2023-02-05T14:53:33.991Z,0.83
2023-02-05T14:56:03.009Z,0.60
2023-02-05T14:58:40.837Z,0.60
2023-02-05T15:01:36.335Z,0.80
2023-02-05T15:04:06.418Z,0.40
2023-02-05T15:06:42.001Z,0.70
2023-02-05T15:09:26.226Z,1.07
2023-02-05T15:12:09.183Z,1.20
2023-02-05T15:14:52.087Z,0.73
2023-02-05T15:17:32.263Z,0.83
2023-02-05T15:20:33.862Z,0.87
2023-02-05T15:23:11.912Z,0.32
2023-02-05T15:25:44.393Z,0.90
2023-02-05T15:28:43.452Z,1.00
2023-02-05T15:31:29.138Z,0.80
2023-02-05T15:34:18.496Z,0.90
2023-02-05T15:37:10.953Z,0.37
2023-02-05T15:39:52.385Z,1.53
2023-02-05T15:42:40.862Z,2.58
2023-02-05T15:45:17.885Z,0.40
2023-02-05T15:47:45.743Z,0.73
2023-02-05T15:50:16.473Z,0.40
2023-02-05T15:52:44.151Z,0.33
2023-02-05T15:55:15.017Z,0.70
2023-02-05T15:57:43.013Z,0.40
2023-02-05T16:00:12.234Z,1.00
2023-02-05T16:02:45.795Z,0.83
2023-02-05T16:05:21.230Z,0.60
2023-02-05T16:07:55.119Z,1.17
2023-02-05T16:10:25.842Z,0.63
2023-02-05T16:13:00.588Z,0.23
2023-02-05T16:16:06.610Z,0.30
2023-02-05T16:19:01.107Z,2.47
2023-02-05T16:21:42.348Z,3.27
2023-02-05T16:24:23.599Z,0.82
2023-02-05T16:27:09.770Z,1.17
2023-02-05T16:29:47.619Z,8.03
2023-02-05T16:32:36.963Z,8.07
2023-02-05T16:35:08.311Z,3.33
2023-02-05T16:37:37.267Z,3.40
2023-02-05T16:40:07.089Z,7.17
2023-02-05T16:42:43.264Z,4.23
2023-02-05T16:45:13.864Z,4.83
2023-02-05T16:47:41.531Z,1.37
2023-02-05T16:50:37.007Z,2.33
2023-02-05T16:53:14.675Z,3.97
2023-02-05T16:55:45.699Z,1.43
2023-02-05T16:58:22.280Z,0.63
2023-02-05T17:00:58.979Z,0.87
2023-02-05T17:03:30.164Z,1.30
2023-02-05T17:06:13.911Z,1.33
2023-02-05T17:08:45.430Z,1.77
2023-02-05T17:11:39.672Z,1.20
2023-02-05T17:14:32.535Z,2.37
2023-02-05T17:17:05.417Z,2.00
2023-02-05T17:19:35.031Z,0.83
2023-02-05T17:22:29.422Z,1.10
2023-02-05T17:24:57.134Z,1.60
2023-02-05T17:27:38.919Z,1.67
2023-02-05T17:30:11.671Z,1.73
2023-02-05T17:32:39.378Z,0.93
2023-02-05T17:35:14.813Z,1.83
2023-02-05T17:37:42.482Z,1.63
2023-02-05T17:40:13.400Z,1.93
2023-02-05T17:42:44.266Z,3.03
2023-02-05T17:45:29.158Z,1.08
2023-02-05T17:47:56.833Z,1.63
2023-02-05T17:50:24.492Z,1.50
2023-02-05T17:52:54.512Z,0.70
2023-02-05T17:55:23.148Z,2.17
2023-02-05T17:57:51.013Z,3.20
2023-02-05T18:00:28.000Z,1.30
2023-02-05T18:02:56.067Z,3.43
2023-02-05T18:05:23.884Z,3.63
2023-02-05T18:07:57.781Z,2.70
2023-02-05T18:10:28.578Z,3.20
2023-02-05T18:12:56.632Z,4.23
2023-02-05T18:15:25.778Z,5.20
2023-02-05T18:17:53.970Z,4.33
2023-02-05T18:20:21.937Z,4.93
2023-02-05T18:22:50.461Z,4.67
2023-02-05T18:25:18.335Z,6.70
2023-02-05T18:27:46.845Z,7.60
2023-02-05T18:30:14.829Z,4.87
2023-02-05T18:32:42.526Z,4.30
2023-02-05T18:35:14.354Z,5.73
2023-02-05T18:40:12.643Z,4.17
2023-02-05T18:42:41.225Z,4.77
2023-02-05T18:45:09.983Z,2.33
2023-02-05T18:47:37.737Z,1.20
2023-02-05T18:50:07.527Z,1.00
2023-02-05T18:52:35.940Z,1.40
2023-02-05T18:55:04.492Z,1.40
2023-02-05T18:57:32.229Z,1.57
2023-02-05T18:59:59.977Z,2.30
2023-02-05T19:02:27.662Z,1.30
2023-02-05T19:04:56.315Z,3.17
2023-02-05T19:07:24.938Z,3.77
2023-02-05T19:09:53.045Z,4.43
2023-02-05T19:12:21.091Z,3.83
2023-02-05T19:14:50.389Z,3.97
2023-02-05T19:17:18.098Z,3.47
2023-02-05T19:19:45.759Z,1.80
2023-02-05T19:22:13.444Z,1.43
2023-02-05T19:24:43.076Z,2.03
2023-02-05T19:27:11.206Z,1.90
2023-02-05T19:29:40.920Z,4.07
2023-02-05T19:32:09.566Z,1.67
2023-02-05T19:34:38.498Z,1.33
2023-02-05T19:37:06.241Z,5.90
2023-02-05T19:39:33.870Z,4.87
2023-02-05T19:42:01.588Z,1.80
2023-02-05T19:44:30.911Z,1.47
2023-02-05T19:46:58.660Z,1.37
2023-02-05T19:49:26.416Z,1.27
2023-02-05T19:51:56.333Z,1.13
2023-02-05T19:54:24.350Z,0.73
2023-02-05T19:56:52.549Z,1.33
2023-02-05T19:59:21.095Z,0.30
2023-02-05T20:01:49.905Z,1.10
2023-02-05T20:04:21.624Z,1.13
2023-02-05T20:06:52.145Z,0.70
2023-02-05T20:09:19.826Z,0.50
2023-02-05T20:11:50.892Z,0.97
2023-02-05T20:14:18.755Z,1.05
2023-02-05T20:16:47.223Z,0.40
2023-02-05T20:19:16.941Z,0.60
2023-02-05T20:21:45.642Z,0.87
2023-02-05T20:24:13.566Z,1.07
2023-02-05T20:26:41.308Z,1.07
2023-02-05T20:29:27.229Z,0.90
2023-02-05T20:31:55.189Z,0.83
2023-02-05T20:34:25.796Z,1.13
2023-02-05T20:36:54.892Z,1.13
2023-02-05T20:39:25.169Z,1.13
2023-02-05T20:41:53.458Z,1.27
2023-02-05T20:44:21.142Z,0.40
2023-02-05T20:46:49.087Z,0.47
2023-02-05T20:49:16.864Z,0.70
2023-02-05T20:51:45.134Z,0.93
2023-02-05T20:54:13.469Z,0.67
2023-02-05T20:56:41.384Z,1.53
2023-02-05T20:59:10.343Z,1.07
2023-02-05T21:01:39.804Z,0.60
2023-02-05T21:04:09.659Z,0.50
2023-02-05T21:06:40.158Z,1.33
2023-02-05T21:09:09.523Z,0.27
2023-02-05T21:11:38.708Z,0.60
2023-02-05T21:14:07.740Z,0.53
2023-02-05T21:16:36.655Z,0.30
2023-02-05T21:19:06.483Z,0.43
2023-02-05T21:21:37.201Z,0.80
2023-02-05T21:24:08.089Z,1.17
2023-02-05T21:26:41.287Z,1.50
2023-02-05T21:29:14.946Z,0.50
2023-02-05T21:31:46.435Z,2.03
2023-02-05T21:34:17.706Z,1.27
2023-02-05T21:36:46.625Z,1.88
2023-02-05T21:39:15.759Z,2.50
2023-02-05T21:41:44.887Z,1.23
2023-02-05T21:44:13.379Z,3.20
2023-02-05T21:46:41.592Z,2.60
2023-02-05T21:49:09.689Z,2.33
2023-02-05T21:51:37.743Z,0.90
2023-02-05T21:54:07.409Z,1.05
2023-02-05T21:56:39.051Z,1.13
2023-02-05T21:59:07.651Z,1.38
2023-02-05T22:01:37.177Z,0.70
2023-02-05T22:04:09.093Z,0.50
2023-02-05T22:09:08.171Z,1.10
2023-02-05T22:11:36.767Z,0.95
2023-02-05T22:14:04.508Z,1.13
2023-02-05T22:16:34.351Z,1.00
2023-02-05T22:19:03.247Z,1.80
2023-02-05T22:21:33.666Z,0.50
2023-02-05T22:24:03.499Z,0.63
2023-02-05T22:26:39.173Z,0.57
2023-02-05T22:29:09.168Z,0.67
2023-02-05T22:31:37.026Z,0.47
2023-02-05T22:34:05.432Z,0.40
2023-02-05T22:36:34.950Z,0.93
2023-02-05T22:39:03.580Z,1.43
2023-02-05T22:41:37.624Z,1.67
2023-02-05T22:44:06.760Z,1.37
2023-02-05T22:46:38.223Z,1.30
2023-02-05T22:49:06.376Z,0.60
2023-02-05T22:51:37.451Z,0.50
2023-02-05T22:54:05.745Z,0.43
2023-02-05T22:56:34.045Z,0.30
2023-02-05T22:59:03.450Z,0.33
2023-02-05T23:01:35.925Z,1.27
2023-02-05T23:04:05.607Z,0.93
2023-02-05T23:06:35.780Z,0.80
2023-02-05T23:09:09.641Z,0.43
2023-02-05T23:11:38.054Z,1.07
2023-02-05T23:14:07.845Z,0.70
2023-02-05T23:16:39.206Z,1.77
2023-02-05T23:19:11.288Z,1.13
2023-02-05T23:21:40.689Z,3.15
2023-02-05T23:24:09.858Z,1.53
2023-02-05T23:26:42.243Z,3.40
2023-02-05T23:29:12.310Z,2.97
2023-02-05T23:31:40.206Z,3.07
2023-02-05T23:34:08.207Z,5.30
2023-02-05T23:36:36.149Z,4.50
2023-02-05T23:39:04.076Z,3.10
2023-02-05T23:41:37.522Z,1.70
2023-02-05T23:44:11.145Z,2.30
2023-02-05T23:46:39.597Z,3.40
2023-02-05T23:49:07.494Z,1.67
2023-02-05T23:51:35.740Z,1.13
2023-02-05T23:54:03.858Z,1.57
2023-02-05T23:56:32.082Z,1.40
2023-02-05T23:59:00.118Z,1.20
